sensor_id;sensor_type;location;lat;lon;timestamp;P1;durP1;ratioP1;P2;durP2;ratioP2
16312;SDS011;8265;52.622;13.296;2022-08-27T00:00:03;15.40;;;11.20;;
16312;SDS011;8265;52.622;13.296;2022-08-27T00:05:22;16.70;;;13.10;;
16312;SDS011;8265;52.622;13.296;2022-08-27T00:10:43;15.10;;;12.80;;
16312;SDS011;8265;52.622;13.296;2022-08-27T00:16:05;20.50;;;12.00;;
16312;SDS011;8265;52.622;13.296;2022-08-27T00:21:25;29.30;;;22.00;;
16312;SDS011;8265;52.622;13.296;2022-08-27T00:26:46;20.10;;;14.80;;
16312;SDS011;8265;52.622;13.296;2022-08-27T00:32:07;18.00;;;13.10;;
16312;SDS011;8265;52.622;13.296;2022-08-27T00:37:28;16.10;;;12.80;;
16312;SDS011;8265;52.622;13.296;2022-08-27T00:42:49;31.10;;;13.80;;
16312;SDS011;8265;52.622;13.296;2022-08-27T00:48:12;30.10;;;15.00;;
16312;SDS011;8265;52.622;13.296;2022-08-27T00:53:32;33.90;;;24.50;;
16312;SDS011;8265;52.622;13.296;2022-08-27T00:58:52;35.90;;;23.30;;
16312;SDS011;8265;52.622;13.296;2022-08-27T01:04:13;17.80;;;13.60;;
16312;SDS011;8265;52.622;13.296;2022-08-27T01:09:34;29.80;;;20.80;;
16312;SDS011;8265;52.622;13.296;2022-08-27T01:14:55;19.40;;;12.30;;
16312;SDS011;8265;52.622;13.296;2022-08-27T01:20:16;15.30;;;13.30;;
16312;SDS011;8265;52.622;13.296;2022-08-27T01:25:36;27.00;;;13.80;;
16312;SDS011;8265;52.622;13.296;2022-08-27T01:30:57;17.50;;;13.80;;
16312;SDS011;8265;52.622;13.296;2022-08-27T01:36:18;28.60;;;20.70;;
16312;SDS011;8265;52.622;13.296;2022-08-27T01:41:39;29.50;;;21.90;;
16312;SDS011;8265;52.622;13.296;2022-08-27T01:47:00;16.00;;;12.60;;
16312;SDS011;8265;52.622;13.296;2022-08-27T01:52:22;28.60;;;21.30;;
16312;SDS011;8265;52.622;13.296;2022-08-27T01:57:42;25.10;;;16.90;;
16312;SDS011;8265;52.622;13.296;2022-08-27T02:03:05;24.90;;;15.00;;
16312;SDS011;8265;52.622;13.296;2022-08-27T02:08:24;26.60;;;22.00;;
16312;SDS011;8265;52.622;13.296;2022-08-27T02:13:45;22.30;;;15.20;;
16312;SDS011;8265;52.622;13.296;2022-08-27T02:19:06;18.10;;;13.90;;
16312;SDS011;8265;52.622;13.296;2022-08-27T02:24:27;25.00;;;18.00;;
16312;SDS011;8265;52.622;13.296;2022-08-27T02:29:48;27.50;;;16.30;;
16312;SDS011;8265;52.622;13.296;2022-08-27T02:35:09;27.40;;;19.30;;
16312;SDS011;8265;52.622;13.296;2022-08-27T02:40:30;29.60;;;17.70;;
16312;SDS011;8265;52.622;13.296;2022-08-27T02:45:51;32.90;;;18.70;;
16312;SDS011;8265;52.622;13.296;2022-08-27T02:51:12;39.70;;;19.60;;
16312;SDS011;8265;52.622;13.296;2022-08-27T02:56:33;27.10;;;19.20;;
16312;SDS011;8265;52.622;13.296;2022-08-27T03:01:54;34.40;;;20.00;;
16312;SDS011;8265;52.622;13.296;2022-08-27T03:07:15;28.40;;;18.40;;
16312;SDS011;8265;52.622;13.296;2022-08-27T03:12:36;40.80;;;22.00;;
16312;SDS011;8265;52.622;13.296;2022-08-27T03:17:57;39.40;;;21.80;;
16312;SDS011;8265;52.622;13.296;2022-08-27T03:23:18;31.10;;;22.50;;
16312;SDS011;8265;52.622;13.296;2022-08-27T03:28:39;34.40;;;21.60;;
16312;SDS011;8265;52.622;13.296;2022-08-27T03:34:01;35.50;;;21.00;;
16312;SDS011;8265;52.622;13.296;2022-08-27T03:39:20;29.90;;;19.30;;
16312;SDS011;8265;52.622;13.296;2022-08-27T03:44:41;34.20;;;18.80;;
16312;SDS011;8265;52.622;13.296;2022-08-27T03:50:03;40.20;;;30.20;;
16312;SDS011;8265;52.622;13.296;2022-08-27T03:55:24;27.70;;;17.40;;
16312;SDS011;8265;52.622;13.296;2022-08-27T04:00:44;32.10;;;18.10;;
16312;SDS011;8265;52.622;13.296;2022-08-27T04:06:06;30.80;;;18.40;;
16312;SDS011;8265;52.622;13.296;2022-08-27T04:11:26;25.60;;;16.60;;
16312;SDS011;8265;52.622;13.296;2022-08-27T04:16:47;34.20;;;21.80;;
16312;SDS011;8265;52.622;13.296;2022-08-27T04:22:08;42.80;;;21.30;;
16312;SDS011;8265;52.622;13.296;2022-08-27T04:27:29;45.20;;;29.70;;
16312;SDS011;8265;52.622;13.296;2022-08-27T04:32:50;38.90;;;20.70;;
16312;SDS011;8265;52.622;13.296;2022-08-27T04:38:11;26.60;;;16.50;;
16312;SDS011;8265;52.622;13.296;2022-08-27T04:43:32;29.20;;;19.10;;
16312;SDS011;8265;52.622;13.296;2022-08-27T04:48:53;43.90;;;20.30;;
16312;SDS011;8265;52.622;13.296;2022-08-27T04:54:14;36.60;;;17.50;;
16312;SDS011;8265;52.622;13.296;2022-08-27T04:59:35;43.90;;;20.30;;
16312;SDS011;8265;52.622;13.296;2022-08-27T05:04:56;34.40;;;19.70;;
16312;SDS011;8265;52.622;13.296;2022-08-27T05:10:17;50.20;;;30.90;;
16312;SDS011;8265;52.622;13.296;2022-08-27T05:15:38;39.10;;;20.40;;
16312;SDS011;8265;52.622;13.296;2022-08-27T05:20:59;38.30;;;18.80;;
16312;SDS011;8265;52.622;13.296;2022-08-27T05:26:20;33.80;;;20.00;;
16312;SDS011;8265;52.622;13.296;2022-08-27T05:31:41;28.80;;;17.70;;
16312;SDS011;8265;52.622;13.296;2022-08-27T05:37:02;28.20;;;17.80;;
16312;SDS011;8265;52.622;13.296;2022-08-27T05:42:23;29.20;;;18.20;;
16312;SDS011;8265;52.622;13.296;2022-08-27T05:47:44;25.50;;;15.10;;
16312;SDS011;8265;52.622;13.296;2022-08-27T05:53:05;22.00;;;13.60;;
16312;SDS011;8265;52.622;13.296;2022-08-27T05:58:26;30.40;;;20.60;;
16312;SDS011;8265;52.622;13.296;2022-08-27T06:03:47;21.00;;;12.90;;
16312;SDS011;8265;52.622;13.296;2022-08-27T06:09:08;20.50;;;15.70;;
16312;SDS011;8265;52.622;13.296;2022-08-27T06:14:29;19.00;;;12.40;;
16312;SDS011;8265;52.622;13.296;2022-08-27T06:19:50;19.50;;;10.80;;
16312;SDS011;8265;52.622;13.296;2022-08-27T06:25:11;20.20;;;15.40;;
16312;SDS011;8265;52.622;13.296;2022-08-27T06:30:32;15.20;;;13.60;;
16312;SDS011;8265;52.622;13.296;2022-08-27T06:35:53;15.90;;;12.90;;
16312;SDS011;8265;52.622;13.296;2022-08-27T06:41:14;14.00;;;8.20;;
16312;SDS011;8265;52.622;13.296;2022-08-27T06:46:35;19.40;;;11.30;;
16312;SDS011;8265;52.622;13.296;2022-08-27T06:51:56;16.70;;;12.60;;
16312;SDS011;8265;52.622;13.296;2022-08-27T06:57:16;12.40;;;8.90;;
16312;SDS011;8265;52.622;13.296;2022-08-27T07:02:38;12.20;;;10.40;;
16312;SDS011;8265;52.622;13.296;2022-08-27T07:07:59;17.40;;;12.60;;
16312;SDS011;8265;52.622;13.296;2022-08-27T07:13:19;11.30;;;9.20;;
16312;SDS011;8265;52.622;13.296;2022-08-27T07:18:40;17.10;;;11.50;;
16312;SDS011;8265;52.622;13.296;2022-08-27T07:24:02;12.50;;;9.70;;
16312;SDS011;8265;52.622;13.296;2022-08-27T07:29:22;15.50;;;7.20;;
16312;SDS011;8265;52.622;13.296;2022-08-27T07:34:43;9.30;;;7.30;;
16312;SDS011;8265;52.622;13.296;2022-08-27T07:40:06;12.00;;;9.00;;
16312;SDS011;8265;52.622;13.296;2022-08-27T07:45:25;11.00;;;6.90;;
16312;SDS011;8265;52.622;13.296;2022-08-27T07:50:46;15.70;;;10.90;;
16312;SDS011;8265;52.622;13.296;2022-08-27T07:56:07;9.20;;;8.20;;
16312;SDS011;8265;52.622;13.296;2022-08-27T08:01:28;14.70;;;7.90;;
16312;SDS011;8265;52.622;13.296;2022-08-27T08:06:49;7.50;;;6.80;;
16312;SDS011;8265;52.622;13.296;2022-08-27T08:12:10;14.90;;;9.40;;
16312;SDS011;8265;52.622;13.296;2022-08-27T08:17:32;13.10;;;10.20;;
16312;SDS011;8265;52.622;13.296;2022-08-27T08:22:52;10.10;;;7.10;;
16312;SDS011;8265;52.622;13.296;2022-08-27T08:28:13;11.70;;;8.90;;
16312;SDS011;8265;52.622;13.296;2022-08-27T08:33:34;13.20;;;6.80;;
16312;SDS011;8265;52.622;13.296;2022-08-27T08:38:55;8.10;;;7.30;;
16312;SDS011;8265;52.622;13.296;2022-08-27T08:44:18;8.20;;;5.20;;
16312;SDS011;8265;52.622;13.296;2022-08-27T08:49:42;8.10;;;4.50;;
16312;SDS011;8265;52.622;13.296;2022-08-27T08:54:59;7.40;;;4.50;;
16312;SDS011;8265;52.622;13.296;2022-08-27T09:00:19;8.30;;;4.80;;
16312;SDS011;8265;52.622;13.296;2022-08-27T09:05:41;7.70;;;5.40;;
16312;SDS011;8265;52.622;13.296;2022-08-27T09:11:04;4.60;;;4.10;;
16312;SDS011;8265;52.622;13.296;2022-08-27T09:16:22;8.60;;;7.70;;
16312;SDS011;8265;52.622;13.296;2022-08-27T09:21:46;7.40;;;6.70;;
16312;SDS011;8265;52.622;13.296;2022-08-27T09:27:04;8.30;;;5.60;;
16312;SDS011;8265;52.622;13.296;2022-08-27T09:32:25;8.40;;;5.40;;
16312;SDS011;8265;52.622;13.296;2022-08-27T09:37:47;6.70;;;5.90;;
16312;SDS011;8265;52.622;13.296;2022-08-27T09:43:07;9.40;;;5.60;;
16312;SDS011;8265;52.622;13.296;2022-08-27T09:48:28;7.80;;;7.00;;
16312;SDS011;8265;52.622;13.296;2022-08-27T09:53:49;6.40;;;5.10;;
16312;SDS011;8265;52.622;13.296;2022-08-27T09:59:10;9.00;;;6.00;;
16312;SDS011;8265;52.622;13.296;2022-08-27T10:04:34;11.50;;;4.90;;
16312;SDS011;8265;52.622;13.296;2022-08-27T10:09:52;7.80;;;5.20;;
16312;SDS011;8265;52.622;13.296;2022-08-27T10:15:13;5.00;;;4.10;;
16312;SDS011;8265;52.622;13.296;2022-08-27T10:20:37;5.00;;;4.40;;
16312;SDS011;8265;52.622;13.296;2022-08-27T10:25:57;8.00;;;5.30;;
16312;SDS011;8265;52.622;13.296;2022-08-27T10:31:17;5.40;;;3.90;;
16312;SDS011;8265;52.622;13.296;2022-08-27T10:36:38;3.40;;;3.10;;
16312;SDS011;8265;52.622;13.296;2022-08-27T10:42:00;4.80;;;4.20;;
16312;SDS011;8265;52.622;13.296;2022-08-27T10:47:22;6.10;;;3.70;;
16312;SDS011;8265;52.622;13.296;2022-08-27T10:52:40;3.30;;;3.00;;
16312;SDS011;8265;52.622;13.296;2022-08-27T10:58:04;3.20;;;2.90;;
16312;SDS011;8265;52.622;13.296;2022-08-27T11:03:24;3.40;;;2.20;;
16312;SDS011;8265;52.622;13.296;2022-08-27T11:08:43;7.80;;;2.40;;
16312;SDS011;8265;52.622;13.296;2022-08-27T11:14:03;5.10;;;2.60;;
16312;SDS011;8265;52.622;13.296;2022-08-27T11:19:26;2.10;;;1.90;;
16312;SDS011;8265;52.622;13.296;2022-08-27T11:24:46;3.40;;;2.90;;
16312;SDS011;8265;52.622;13.296;2022-08-27T11:30:06;2.30;;;2.10;;
16312;SDS011;8265;52.622;13.296;2022-08-27T11:35:27;2.80;;;2.50;;
16312;SDS011;8265;52.622;13.296;2022-08-27T11:40:51;4.10;;;3.70;;
16312;SDS011;8265;52.622;13.296;2022-08-27T11:46:09;3.90;;;3.50;;
16312;SDS011;8265;52.622;13.296;2022-08-27T11:51:30;10.60;;;5.80;;
16312;SDS011;8265;52.622;13.296;2022-08-27T11:56:50;8.10;;;4.70;;
16312;SDS011;8265;52.622;13.296;2022-08-27T12:02:19;7.10;;;6.00;;
16312;SDS011;8265;52.622;13.296;2022-08-27T12:07:33;7.70;;;5.10;;
16312;SDS011;8265;52.622;13.296;2022-08-27T12:12:56;14.70;;;5.90;;
16312;SDS011;8265;52.622;13.296;2022-08-27T12:18:19;4.80;;;4.30;;
16312;SDS011;8265;52.622;13.296;2022-08-27T12:23:36;8.70;;;5.50;;
16312;SDS011;8265;52.622;13.296;2022-08-27T12:34:18;3.80;;;3.30;;
16312;SDS011;8265;52.622;13.296;2022-08-27T12:39:39;8.40;;;6.30;;
16312;SDS011;8265;52.622;13.296;2022-08-27T12:44:59;4.80;;;4.20;;
16312;SDS011;8265;52.622;13.296;2022-08-27T12:50:21;5.50;;;4.80;;
16312;SDS011;8265;52.622;13.296;2022-08-27T12:55:48;4.10;;;3.70;;
16312;SDS011;8265;52.622;13.296;2022-08-27T13:01:07;8.10;;;5.10;;
16312;SDS011;8265;52.622;13.296;2022-08-27T13:06:26;6.60;;;5.00;;
16312;SDS011;8265;52.622;13.296;2022-08-27T13:11:45;9.70;;;4.20;;
16312;SDS011;8265;52.622;13.296;2022-08-27T13:17:06;6.30;;;5.60;;
16312;SDS011;8265;52.622;13.296;2022-08-27T13:22:27;13.00;;;3.30;;
16312;SDS011;8265;52.622;13.296;2022-08-27T13:27:51;4.60;;;3.80;;
16312;SDS011;8265;52.622;13.296;2022-08-27T13:33:09;3.60;;;3.30;;
16312;SDS011;8265;52.622;13.296;2022-08-27T13:38:30;3.60;;;3.00;;
16312;SDS011;8265;52.622;13.296;2022-08-27T13:43:50;3.70;;;3.40;;
16312;SDS011;8265;52.622;13.296;2022-08-27T13:49:13;5.80;;;4.40;;
16312;SDS011;8265;52.622;13.296;2022-08-27T13:54:32;16.80;;;12.60;;
16312;SDS011;8265;52.622;13.296;2022-08-27T13:59:53;6.20;;;4.10;;
16312;SDS011;8265;52.622;13.296;2022-08-27T14:05:24;8.50;;;3.90;;
16312;SDS011;8265;52.622;13.296;2022-08-27T14:10:36;8.50;;;5.00;;
16312;SDS011;8265;52.622;13.296;2022-08-27T14:15:57;3.70;;;2.80;;
16312;SDS011;8265;52.622;13.296;2022-08-27T14:21:17;6.00;;;3.80;;
16312;SDS011;8265;52.622;13.296;2022-08-27T14:26:38;9.80;;;5.10;;
16312;SDS011;8265;52.622;13.296;2022-08-27T14:31:59;6.50;;;4.00;;
16312;SDS011;8265;52.622;13.296;2022-08-27T14:37:19;10.80;;;3.90;;
16312;SDS011;8265;52.622;13.296;2022-08-27T14:42:40;9.80;;;7.60;;
16312;SDS011;8265;52.622;13.296;2022-08-27T14:48:03;8.40;;;7.00;;
16312;SDS011;8265;52.622;13.296;2022-08-27T14:53:23;5.40;;;3.70;;
16312;SDS011;8265;52.622;13.296;2022-08-27T14:58:43;5.20;;;3.80;;
16312;SDS011;8265;52.622;13.296;2022-08-27T15:04:04;8.20;;;6.10;;
16312;SDS011;8265;52.622;13.296;2022-08-27T15:09:25;5.00;;;3.80;;
16312;SDS011;8265;52.622;13.296;2022-08-27T15:14:46;5.20;;;3.90;;
16312;SDS011;8265;52.622;13.296;2022-08-27T15:20:10;5.50;;;3.50;;
16312;SDS011;8265;52.622;13.296;2022-08-27T15:25:28;8.60;;;5.20;;
16312;SDS011;8265;52.622;13.296;2022-08-27T15:30:49;5.80;;;4.10;;
16312;SDS011;8265;52.622;13.296;2022-08-27T15:36:10;3.70;;;3.40;;
16312;SDS011;8265;52.622;13.296;2022-08-27T15:41:32;13.90;;;3.90;;
16312;SDS011;8265;52.622;13.296;2022-08-27T15:46:52;4.10;;;2.90;;
16312;SDS011;8265;52.622;13.296;2022-08-27T15:52:14;3.00;;;2.70;;
16312;SDS011;8265;52.622;13.296;2022-08-27T15:57:34;3.70;;;3.30;;
16312;SDS011;8265;52.622;13.296;2022-08-27T16:02:55;3.10;;;2.80;;
16312;SDS011;8265;52.622;13.296;2022-08-27T16:08:16;5.40;;;2.80;;
16312;SDS011;8265;52.622;13.296;2022-08-27T16:13:37;6.50;;;3.40;;
16312;SDS011;8265;52.622;13.296;2022-08-27T16:18:58;5.20;;;2.70;;
16312;SDS011;8265;52.622;13.296;2022-08-27T16:24:19;3.80;;;2.50;;
16312;SDS011;8265;52.622;13.296;2022-08-27T16:29:40;3.60;;;2.80;;
16312;SDS011;8265;52.622;13.296;2022-08-27T16:35:01;4.40;;;3.60;;
16312;SDS011;8265;52.622;13.296;2022-08-27T16:40:22;5.70;;;3.30;;
16312;SDS011;8265;52.622;13.296;2022-08-27T16:45:43;3.30;;;2.40;;
16312;SDS011;8265;52.622;13.296;2022-08-27T16:51:04;3.00;;;2.50;;
16312;SDS011;8265;52.622;13.296;2022-08-27T16:56:25;3.50;;;2.50;;
16312;SDS011;8265;52.622;13.296;2022-08-27T17:01:46;5.80;;;3.60;;
16312;SDS011;8265;52.622;13.296;2022-08-27T17:07:07;3.80;;;3.20;;
16312;SDS011;8265;52.622;13.296;2022-08-27T17:12:28;5.00;;;3.90;;
16312;SDS011;8265;52.622;13.296;2022-08-27T17:17:49;3.40;;;2.50;;
16312;SDS011;8265;52.622;13.296;2022-08-27T17:23:11;2.70;;;2.50;;
16312;SDS011;8265;52.622;13.296;2022-08-27T17:28:31;4.00;;;3.30;;
16312;SDS011;8265;52.622;13.296;2022-08-27T17:33:52;2.80;;;2.30;;
16312;SDS011;8265;52.622;13.296;2022-08-27T17:39:13;2.60;;;2.40;;
16312;SDS011;8265;52.622;13.296;2022-08-27T17:44:34;5.80;;;3.30;;
16312;SDS011;8265;52.622;13.296;2022-08-27T17:49:54;4.20;;;2.80;;
16312;SDS011;8265;52.622;13.296;2022-08-27T17:55:15;4.30;;;3.00;;
16312;SDS011;8265;52.622;13.296;2022-08-27T18:00:37;7.50;;;3.10;;
16312;SDS011;8265;52.622;13.296;2022-08-27T18:05:57;3.40;;;3.10;;
16312;SDS011;8265;52.622;13.296;2022-08-27T18:11:18;5.40;;;3.70;;
16312;SDS011;8265;52.622;13.296;2022-08-27T18:16:39;4.60;;;3.30;;
16312;SDS011;8265;52.622;13.296;2022-08-27T18:22:00;3.50;;;2.90;;
16312;SDS011;8265;52.622;13.296;2022-08-27T18:27:25;2.00;;;1.70;;
16312;SDS011;8265;52.622;13.296;2022-08-27T18:32:42;2.40;;;2.20;;
16312;SDS011;8265;52.622;13.296;2022-08-27T18:38:03;3.00;;;2.60;;
16312;SDS011;8265;52.622;13.296;2022-08-27T18:43:29;6.60;;;2.20;;
16312;SDS011;8265;52.622;13.296;2022-08-27T18:48:45;4.80;;;3.70;;
16312;SDS011;8265;52.622;13.296;2022-08-27T18:54:06;8.90;;;6.30;;
16312;SDS011;8265;52.622;13.296;2022-08-27T18:59:27;5.90;;;2.60;;
16312;SDS011;8265;52.622;13.296;2022-08-27T19:04:48;4.10;;;2.80;;
16312;SDS011;8265;52.622;13.296;2022-08-27T19:10:09;2.90;;;2.20;;
16312;SDS011;8265;52.622;13.296;2022-08-27T19:15:30;2.60;;;1.80;;
16312;SDS011;8265;52.622;13.296;2022-08-27T19:20:51;9.80;;;2.70;;
16312;SDS011;8265;52.622;13.296;2022-08-27T19:26:13;5.50;;;2.80;;
16312;SDS011;8265;52.622;13.296;2022-08-27T19:31:33;2.40;;;2.20;;
16312;SDS011;8265;52.622;13.296;2022-08-27T19:36:54;4.30;;;3.10;;
16312;SDS011;8265;52.622;13.296;2022-08-27T19:42:15;44.00;;;4.80;;
16312;SDS011;8265;52.622;13.296;2022-08-27T19:47:36;7.40;;;4.10;;
16312;SDS011;8265;52.622;13.296;2022-08-27T19:52:57;2.80;;;2.60;;
16312;SDS011;8265;52.622;13.296;2022-08-27T19:58:18;3.10;;;2.80;;
16312;SDS011;8265;52.622;13.296;2022-08-27T20:03:39;3.80;;;3.10;;
16312;SDS011;8265;52.622;13.296;2022-08-27T20:09:00;3.80;;;3.20;;
16312;SDS011;8265;52.622;13.296;2022-08-27T20:14:20;5.00;;;3.60;;
16312;SDS011;8265;52.622;13.296;2022-08-27T20:19:41;4.80;;;4.30;;
16312;SDS011;8265;52.622;13.296;2022-08-27T20:25:03;7.20;;;4.70;;
16312;SDS011;8265;52.622;13.296;2022-08-27T20:30:24;3.90;;;2.80;;
16312;SDS011;8265;52.622;13.296;2022-08-27T20:35:44;8.80;;;2.90;;
16312;SDS011;8265;52.622;13.296;2022-08-27T20:41:06;3.90;;;3.00;;
16312;SDS011;8265;52.622;13.296;2022-08-27T20:46:27;6.10;;;3.90;;
16312;SDS011;8265;52.622;13.296;2022-08-27T20:51:47;10.20;;;2.90;;
16312;SDS011;8265;52.622;13.296;2022-08-27T20:57:08;4.30;;;3.30;;
16312;SDS011;8265;52.622;13.296;2022-08-27T21:02:29;5.50;;;3.30;;
16312;SDS011;8265;52.622;13.296;2022-08-27T21:07:50;8.10;;;4.10;;
16312;SDS011;8265;52.622;13.296;2022-08-27T21:13:11;4.80;;;3.20;;
16312;SDS011;8265;52.622;13.296;2022-08-27T21:18:32;3.30;;;2.90;;
16312;SDS011;8265;52.622;13.296;2022-08-27T21:23:53;11.80;;;4.10;;
16312;SDS011;8265;52.622;13.296;2022-08-27T21:29:14;5.60;;;4.50;;
16312;SDS011;8265;52.622;13.296;2022-08-27T21:34:35;6.10;;;4.70;;
16312;SDS011;8265;52.622;13.296;2022-08-27T21:39:58;10.10;;;4.50;;
16312;SDS011;8265;52.622;13.296;2022-08-27T21:45:17;10.20;;;6.20;;
16312;SDS011;8265;52.622;13.296;2022-08-27T21:50:38;6.80;;;5.60;;
16312;SDS011;8265;52.622;13.296;2022-08-27T21:55:59;8.00;;;6.10;;
16312;SDS011;8265;52.622;13.296;2022-08-27T22:01:20;7.30;;;5.90;;
16312;SDS011;8265;52.622;13.296;2022-08-27T22:06:41;13.00;;;6.80;;
16312;SDS011;8265;52.622;13.296;2022-08-27T22:12:02;11.80;;;6.10;;
16312;SDS011;8265;52.622;13.296;2022-08-27T22:17:23;19.70;;;11.40;;
16312;SDS011;8265;52.622;13.296;2022-08-27T22:22:44;13.10;;;7.40;;
16312;SDS011;8265;52.622;13.296;2022-08-27T22:28:12;14.80;;;9.00;;
16312;SDS011;8265;52.622;13.296;2022-08-27T22:33:26;11.20;;;6.40;;
16312;SDS011;8265;52.622;13.296;2022-08-27T22:38:47;45.80;;;25.50;;
16312;SDS011;8265;52.622;13.296;2022-08-27T22:44:08;12.90;;;7.90;;
16312;SDS011;8265;52.622;13.296;2022-08-27T22:49:29;15.90;;;10.10;;
16312;SDS011;8265;52.622;13.296;2022-08-27T22:54:50;16.40;;;9.00;;
16312;SDS011;8265;52.622;13.296;2022-08-27T23:00:15;11.00;;;8.60;;
16312;SDS011;8265;52.622;13.296;2022-08-27T23:05:32;17.90;;;7.00;;
16312;SDS011;8265;52.622;13.296;2022-08-27T23:10:52;11.60;;;8.10;;
16312;SDS011;8265;52.622;13.296;2022-08-27T23:16:14;9.40;;;6.70;;
16312;SDS011;8265;52.622;13.296;2022-08-27T23:21:34;8.40;;;7.10;;
16312;SDS011;8265;52.622;13.296;2022-08-27T23:26:55;12.60;;;7.60;;
16312;SDS011;8265;52.622;13.296;2022-08-27T23:32:19;14.10;;;9.50;;
16312;SDS011;8265;52.622;13.296;2022-08-27T23:37:38;10.50;;;7.00;;
16312;SDS011;8265;52.622;13.296;2022-08-27T23:42:59;12.30;;;6.10;;
16312;SDS011;8265;52.622;13.296;2022-08-27T23:48:20;12.20;;;6.70;;
16312;SDS011;8265;52.622;13.296;2022-08-27T23:53:41;14.00;;;7.50;;
16312;SDS011;8265;52.622;13.296;2022-08-27T23:59:02;9.80;;;7.70;;
